Clarksburg, Kentucky
Current Conditions -  °F | °C
As of 1:35 PM on Monday 20 Oct 2014 (Local Time) from KFGX Reporting Station
Overcast Overcast  
Wind Chill: 59°   Ceiling: 4900
Heat Index: 59°   Visibility: 10mi
Dew Point: 49°   Wind: 16mph
Humidity: 69%   Direction: 240°WSW
Pressure: 29.98"   Gusts: 20mph
Location:  38.4929°N, 83.3898°W
Report Text: KFGX 201735Z AUTO 24014G17KT 10SM SCT025 BKN049 OVC100 15/09 A2998 RMK AO2 T01480092
Loading
Personal Weather Stations






























Interactive Weather Map
Tropical Storm Tracking
New forecast layout! Learn more

10-Day Weather Forecast

Advertisements
Track Severe Weather on mobile